sensor_id;sensor_type;location;lat;lon;timestamp;temperature;humidity
26336;DHT22;14047;50.936;4.654;2023-10-09T00:02:12;17.20;99.90
26336;DHT22;14047;50.936;4.654;2023-10-09T00:04:40;17.10;99.90
26336;DHT22;14047;50.936;4.654;2023-10-09T00:07:08;17.20;99.90
26336;DHT22;14047;50.936;4.654;2023-10-09T00:09:35;17.20;99.90
26336;DHT22;14047;50.936;4.654;2023-10-09T00:12:15;17.30;99.90
26336;DHT22;14047;50.936;4.654;2023-10-09T00:14:42;17.40;99.90
26336;DHT22;14047;50.936;4.654;2023-10-09T00:17:15;17.50;99.90
26336;DHT22;14047;50.936;4.654;2023-10-09T00:19:41;17.60;99.90
26336;DHT22;14047;50.936;4.654;2023-10-09T00:22:09;17.60;99.90
26336;DHT22;14047;50.936;4.654;2023-10-09T00:24:56;17.60;99.90
26336;DHT22;14047;50.936;4.654;2023-10-09T00:27:43;17.70;99.90
26336;DHT22;14047;50.936;4.654;2023-10-09T00:30:14;17.70;99.90
26336;DHT22;14047;50.936;4.654;2023-10-09T00:32:55;17.70;99.90
26336;DHT22;14047;50.936;4.654;2023-10-09T00:35:24;17.60;99.90
26336;DHT22;14047;50.936;4.654;2023-10-09T00:38:03;17.50;99.90
26336;DHT22;14047;50.936;4.654;2023-10-09T00:40:49;17.50;99.90
26336;DHT22;14047;50.936;4.654;2023-10-09T00:43:30;17.50;99.90
26336;DHT22;14047;50.936;4.654;2023-10-09T00:46:00;17.60;99.90
26336;DHT22;14047;50.936;4.654;2023-10-09T00:48:38;17.70;99.90
26336;DHT22;14047;50.936;4.654;2023-10-09T00:51:09;17.80;99.90
26336;DHT22;14047;50.936;4.654;2023-10-09T00:53:56;17.80;99.90
26336;DHT22;14047;50.936;4.654;2023-10-09T00:56:33;17.80;99.90
26336;DHT22;14047;50.936;4.654;2023-10-09T00:59:19;17.80;99.90
26336;DHT22;14047;50.936;4.654;2023-10-09T01:01:48;17.80;99.90
26336;DHT22;14047;50.936;4.654;2023-10-09T01:04:23;17.80;99.90
26336;DHT22;14047;50.936;4.654;2023-10-09T01:06:51;17.80;99.90
26336;DHT22;14047;50.936;4.654;2023-10-09T01:09:34;17.80;99.90
26336;DHT22;14047;50.936;4.654;2023-10-09T01:12:09;17.70;99.90
26336;DHT22;14047;50.936;4.654;2023-10-09T01:14:43;17.60;99.90
26336;DHT22;14047;50.936;4.654;2023-10-09T01:17:09;17.60;99.90
26336;DHT22;14047;50.936;4.654;2023-10-09T01:19:36;17.50;99.90
26336;DHT22;14047;50.936;4.654;2023-10-09T01:22:02;17.40;99.90
26336;DHT22;14047;50.936;4.654;2023-10-09T01:24:40;17.50;99.90
26336;DHT22;14047;50.936;4.654;2023-10-09T01:27:06;17.50;99.90
26336;DHT22;14047;50.936;4.654;2023-10-09T01:29:41;17.50;99.90
26336;DHT22;14047;50.936;4.654;2023-10-09T01:32:08;17.50;99.90
26336;DHT22;14047;50.936;4.654;2023-10-09T01:34:43;17.50;99.90
26336;DHT22;14047;50.936;4.654;2023-10-09T01:37:20;17.40;99.90
26336;DHT22;14047;50.936;4.654;2023-10-09T01:39:57;17.30;99.90
26336;DHT22;14047;50.936;4.654;2023-10-09T01:42:46;17.30;99.90
26336;DHT22;14047;50.936;4.654;2023-10-09T01:45:13;17.40;99.90
26336;DHT22;14047;50.936;4.654;2023-10-09T01:47:53;17.40;99.90
26336;DHT22;14047;50.936;4.654;2023-10-09T01:50:23;17.30;99.90
26336;DHT22;14047;50.936;4.654;2023-10-09T01:52:52;17.30;99.90
26336;DHT22;14047;50.936;4.654;2023-10-09T01:55:19;17.30;99.90
26336;DHT22;14047;50.936;4.654;2023-10-09T01:58:07;17.30;99.90
26336;DHT22;14047;50.936;4.654;2023-10-09T02:00:48;17.20;99.90
26336;DHT22;14047;50.936;4.654;2023-10-09T02:03:19;17.20;99.90
26336;DHT22;14047;50.936;4.654;2023-10-09T02:05:50;17.30;99.90
26336;DHT22;14047;50.936;4.654;2023-10-09T02:08:17;17.50;99.90
26336;DHT22;14047;50.936;4.654;2023-10-09T02:10:48;17.40;99.90
26336;DHT22;14047;50.936;4.654;2023-10-09T02:13:14;17.40;99.90
26336;DHT22;14047;50.936;4.654;2023-10-09T02:15:43;17.50;99.90
26336;DHT22;14047;50.936;4.654;2023-10-09T02:20:50;17.70;99.90
26336;DHT22;14047;50.936;4.654;2023-10-09T02:23:28;17.70;99.90
26336;DHT22;14047;50.936;4.654;2023-10-09T02:26:17;17.80;99.90
26336;DHT22;14047;50.936;4.654;2023-10-09T02:28:58;17.80;99.90
26336;DHT22;14047;50.936;4.654;2023-10-09T02:31:27;17.80;99.90
26336;DHT22;14047;50.936;4.654;2023-10-09T02:34:10;17.80;99.90
26336;DHT22;14047;50.936;4.654;2023-10-09T02:36:37;17.90;99.90
26336;DHT22;14047;50.936;4.654;2023-10-09T02:39:08;17.90;99.90
26336;DHT22;14047;50.936;4.654;2023-10-09T02:41:55;17.90;99.90
26336;DHT22;14047;50.936;4.654;2023-10-09T02:44:45;17.80;99.90
26336;DHT22;14047;50.936;4.654;2023-10-09T02:47:20;17.80;99.90
26336;DHT22;14047;50.936;4.654;2023-10-09T02:49:50;17.60;99.90
26336;DHT22;14047;50.936;4.654;2023-10-09T02:52:17;17.50;99.90
26336;DHT22;14047;50.936;4.654;2023-10-09T02:54:56;17.50;99.90
26336;DHT22;14047;50.936;4.654;2023-10-09T02:57:27;17.50;99.90
26336;DHT22;14047;50.936;4.654;2023-10-09T02:59:54;17.50;99.90
26336;DHT22;14047;50.936;4.654;2023-10-09T03:02:20;17.70;99.90
26336;DHT22;14047;50.936;4.654;2023-10-09T03:04:48;17.70;99.90
26336;DHT22;14047;50.936;4.654;2023-10-09T03:07:14;17.70;99.90
26336;DHT22;14047;50.936;4.654;2023-10-09T03:09:40;17.60;99.90
26336;DHT22;14047;50.936;4.654;2023-10-09T03:12:07;17.50;99.90
26336;DHT22;14047;50.936;4.654;2023-10-09T03:14:36;17.40;99.90
26336;DHT22;14047;50.936;4.654;2023-10-09T03:17:07;17.10;99.90
26336;DHT22;14047;50.936;4.654;2023-10-09T03:19:37;16.90;99.90
26336;DHT22;14047;50.936;4.654;2023-10-09T03:22:04;16.90;99.90
26336;DHT22;14047;50.936;4.654;2023-10-09T03:24:30;17.00;99.90
26336;DHT22;14047;50.936;4.654;2023-10-09T03:27:01;17.20;99.90
26336;DHT22;14047;50.936;4.654;2023-10-09T03:29:27;17.30;99.90
26336;DHT22;14047;50.936;4.654;2023-10-09T03:31:53;17.30;99.90
26336;DHT22;14047;50.936;4.654;2023-10-09T03:34:21;17.40;99.90
26336;DHT22;14047;50.936;4.654;2023-10-09T03:36:47;17.50;99.90
26336;DHT22;14047;50.936;4.654;2023-10-09T03:39:32;17.50;99.90
26336;DHT22;14047;50.936;4.654;2023-10-09T03:42:07;17.50;99.90
26336;DHT22;14047;50.936;4.654;2023-10-09T03:44:38;17.50;99.90
26336;DHT22;14047;50.936;4.654;2023-10-09T03:47:08;17.50;99.90
26336;DHT22;14047;50.936;4.654;2023-10-09T03:49:36;17.50;99.90
26336;DHT22;14047;50.936;4.654;2023-10-09T03:52:05;17.40;99.90
26336;DHT22;14047;50.936;4.654;2023-10-09T03:54:32;17.20;99.90
26336;DHT22;14047;50.936;4.654;2023-10-09T03:57:01;17.20;99.90
26336;DHT22;14047;50.936;4.654;2023-10-09T03:59:28;17.30;99.90
26336;DHT22;14047;50.936;4.654;2023-10-09T04:01:57;17.40;99.90
26336;DHT22;14047;50.936;4.654;2023-10-09T04:04:24;17.50;99.90
26336;DHT22;14047;50.936;4.654;2023-10-09T04:06:51;17.50;99.90
26336;DHT22;14047;50.936;4.654;2023-10-09T04:09:20;17.50;99.90
26336;DHT22;14047;50.936;4.654;2023-10-09T04:11:50;17.50;99.90
26336;DHT22;14047;50.936;4.654;2023-10-09T04:14:35;17.60;99.90
26336;DHT22;14047;50.936;4.654;2023-10-09T04:17:02;17.60;99.90
26336;DHT22;14047;50.936;4.654;2023-10-09T04:20:02;17.60;99.90
26336;DHT22;14047;50.936;4.654;2023-10-09T04:22:44;17.70;99.90
26336;DHT22;14047;50.936;4.654;2023-10-09T04:25:20;17.80;99.90
26336;DHT22;14047;50.936;4.654;2023-10-09T04:27:54;17.80;99.90
26336;DHT22;14047;50.936;4.654;2023-10-09T04:30:38;17.80;99.90
26336;DHT22;14047;50.936;4.654;2023-10-09T04:33:15;17.60;99.90
26336;DHT22;14047;50.936;4.654;2023-10-09T04:38:47;17.30;99.90
26336;DHT22;14047;50.936;4.654;2023-10-09T04:41:29;17.30;99.90
26336;DHT22;14047;50.936;4.654;2023-10-09T04:43:59;17.40;99.90
26336;DHT22;14047;50.936;4.654;2023-10-09T04:46:51;17.50;99.90
26336;DHT22;14047;50.936;4.654;2023-10-09T04:49:37;17.60;99.90
26336;DHT22;14047;50.936;4.654;2023-10-09T04:52:27;17.50;99.90
26336;DHT22;14047;50.936;4.654;2023-10-09T04:54:59;17.60;99.90
26336;DHT22;14047;50.936;4.654;2023-10-09T04:57:39;17.70;99.90
26336;DHT22;14047;50.936;4.654;2023-10-09T05:00:15;17.70;99.90
26336;DHT22;14047;50.936;4.654;2023-10-09T05:03:04;17.70;99.90
26336;DHT22;14047;50.936;4.654;2023-10-09T05:05:35;17.60;99.90
26336;DHT22;14047;50.936;4.654;2023-10-09T05:10:57;17.60;99.90
26336;DHT22;14047;50.936;4.654;2023-10-09T05:13:43;17.70;99.90
26336;DHT22;14047;50.936;4.654;2023-10-09T05:16:18;17.70;99.90
26336;DHT22;14047;50.936;4.654;2023-10-09T05:18:46;17.60;99.90
26336;DHT22;14047;50.936;4.654;2023-10-09T05:21:29;17.60;99.90
26336;DHT22;14047;50.936;4.654;2023-10-09T05:23:59;17.60;99.90
26336;DHT22;14047;50.936;4.654;2023-10-09T05:26:48;17.60;99.90
26336;DHT22;14047;50.936;4.654;2023-10-09T05:29:23;17.60;99.90
26336;DHT22;14047;50.936;4.654;2023-10-09T05:32:04;17.50;99.90
26336;DHT22;14047;50.936;4.654;2023-10-09T05:34:50;17.60;99.90
26336;DHT22;14047;50.936;4.654;2023-10-09T05:37:32;17.60;99.90
26336;DHT22;14047;50.936;4.654;2023-10-09T05:40:05;17.50;99.90
26336;DHT22;14047;50.936;4.654;2023-10-09T05:42:46;17.40;99.90
26336;DHT22;14047;50.936;4.654;2023-10-09T05:45:23;17.40;99.90
26336;DHT22;14047;50.936;4.654;2023-10-09T05:48:08;17.20;99.90
26336;DHT22;14047;50.936;4.654;2023-10-09T05:50:40;17.10;99.90
26336;DHT22;14047;50.936;4.654;2023-10-09T05:53:32;17.10;99.90
26336;DHT22;14047;50.936;4.654;2023-10-09T05:56:20;16.90;99.90
26336;DHT22;14047;50.936;4.654;2023-10-09T05:59:05;17.00;99.90
26336;DHT22;14047;50.936;4.654;2023-10-09T06:01:49;17.10;99.90
26336;DHT22;14047;50.936;4.654;2023-10-09T06:04:24;17.20;99.90
26336;DHT22;14047;50.936;4.654;2023-10-09T06:07:20;17.20;99.90
26336;DHT22;14047;50.936;4.654;2023-10-09T06:09:49;17.20;99.90
26336;DHT22;14047;50.936;4.654;2023-10-09T06:12:15;17.20;99.90
26336;DHT22;14047;50.936;4.654;2023-10-09T06:15:15;17.30;99.90
26336;DHT22;14047;50.936;4.654;2023-10-09T06:17:59;17.30;99.90
26336;DHT22;14047;50.936;4.654;2023-10-09T06:20:48;17.20;99.90
26336;DHT22;14047;50.936;4.654;2023-10-09T06:23:32;16.90;99.90
26336;DHT22;14047;50.936;4.654;2023-10-09T06:26:17;16.70;99.90
26336;DHT22;14047;50.936;4.654;2023-10-09T06:28:52;16.70;99.90
26336;DHT22;14047;50.936;4.654;2023-10-09T06:31:37;16.70;99.90
26336;DHT22;14047;50.936;4.654;2023-10-09T06:34:21;16.90;99.90
26336;DHT22;14047;50.936;4.654;2023-10-09T06:37:01;16.90;99.90
26336;DHT22;14047;50.936;4.654;2023-10-09T06:39:55;17.00;99.90
26336;DHT22;14047;50.936;4.654;2023-10-09T06:42:22;17.20;99.90
26336;DHT22;14047;50.936;4.654;2023-10-09T06:45:05;17.30;99.90
26336;DHT22;14047;50.936;4.654;2023-10-09T06:47:32;17.30;99.90
26336;DHT22;14047;50.936;4.654;2023-10-09T06:50:11;17.20;99.90
26336;DHT22;14047;50.936;4.654;2023-10-09T06:52:49;17.30;99.90
26336;DHT22;14047;50.936;4.654;2023-10-09T06:55:44;17.30;99.90
26336;DHT22;14047;50.936;4.654;2023-10-09T06:58:21;17.40;99.90
26336;DHT22;14047;50.936;4.654;2023-10-09T07:00:54;17.40;99.90
26336;DHT22;14047;50.936;4.654;2023-10-09T07:03:49;17.50;99.90
26336;DHT22;14047;50.936;4.654;2023-10-09T07:06:20;17.60;99.90
26336;DHT22;14047;50.936;4.654;2023-10-09T07:08:51;17.60;99.90
26336;DHT22;14047;50.936;4.654;2023-10-09T07:11:36;17.80;99.90
26336;DHT22;14047;50.936;4.654;2023-10-09T07:14:10;17.90;99.90
26336;DHT22;14047;50.936;4.654;2023-10-09T07:17:16;18.10;99.90
26336;DHT22;14047;50.936;4.654;2023-10-09T07:19:59;18.10;99.90
26336;DHT22;14047;50.936;4.654;2023-10-09T07:22:36;18.10;99.90
26336;DHT22;14047;50.936;4.654;2023-10-09T07:25:22;18.10;99.90
26336;DHT22;14047;50.936;4.654;2023-10-09T07:28:10;17.90;99.90
26336;DHT22;14047;50.936;4.654;2023-10-09T07:31:03;18.00;99.90
26336;DHT22;14047;50.936;4.654;2023-10-09T07:33:30;18.20;99.90
26336;DHT22;14047;50.936;4.654;2023-10-09T07:36:21;18.20;99.90
26336;DHT22;14047;50.936;4.654;2023-10-09T07:39:04;18.30;99.90
26336;DHT22;14047;50.936;4.654;2023-10-09T07:41:41;18.60;99.90
26336;DHT22;14047;50.936;4.654;2023-10-09T07:44:21;18.60;99.90
26336;DHT22;14047;50.936;4.654;2023-10-09T07:47:02;18.50;99.90
26336;DHT22;14047;50.936;4.654;2023-10-09T07:49:46;18.60;99.90
26336;DHT22;14047;50.936;4.654;2023-10-09T07:52:19;18.60;99.90
26336;DHT22;14047;50.936;4.654;2023-10-09T07:54:48;18.80;99.90
26336;DHT22;14047;50.936;4.654;2023-10-09T07:57:20;19.10;99.90
26336;DHT22;14047;50.936;4.654;2023-10-09T07:59:52;19.30;99.90
26336;DHT22;14047;50.936;4.654;2023-10-09T08:02:27;19.50;99.90
26336;DHT22;14047;50.936;4.654;2023-10-09T08:05:01;19.60;99.90
26336;DHT22;14047;50.936;4.654;2023-10-09T08:07:47;19.60;99.90
26336;DHT22;14047;50.936;4.654;2023-10-09T08:10:49;19.40;99.90
26336;DHT22;14047;50.936;4.654;2023-10-09T08:13:33;19.40;99.90
26336;DHT22;14047;50.936;4.654;2023-10-09T08:16:17;19.50;99.90
26336;DHT22;14047;50.936;4.654;2023-10-09T08:18:48;19.30;99.90
26336;DHT22;14047;50.936;4.654;2023-10-09T08:21:18;19.40;99.90
26336;DHT22;14047;50.936;4.654;2023-10-09T08:24:07;19.40;99.90
26336;DHT22;14047;50.936;4.654;2023-10-09T08:26:54;19.20;99.90
26336;DHT22;14047;50.936;4.654;2023-10-09T08:29:40;18.90;99.90
26336;DHT22;14047;50.936;4.654;2023-10-09T08:32:12;18.80;99.90
26336;DHT22;14047;50.936;4.654;2023-10-09T08:34:44;18.80;99.90
26336;DHT22;14047;50.936;4.654;2023-10-09T08:37:19;18.70;99.90
26336;DHT22;14047;50.936;4.654;2023-10-09T08:39:45;18.70;99.90
26336;DHT22;14047;50.936;4.654;2023-10-09T08:42:14;18.80;99.90
26336;DHT22;14047;50.936;4.654;2023-10-09T08:44:41;18.90;99.90
26336;DHT22;14047;50.936;4.654;2023-10-09T08:47:10;19.00;99.90
26336;DHT22;14047;50.936;4.654;2023-10-09T08:49:36;19.10;99.90
26336;DHT22;14047;50.936;4.654;2023-10-09T08:52:03;19.20;99.90
26336;DHT22;14047;50.936;4.654;2023-10-09T08:54:30;19.40;99.90
26336;DHT22;14047;50.936;4.654;2023-10-09T08:56:58;19.50;99.90
26336;DHT22;14047;50.936;4.654;2023-10-09T08:59:24;19.70;99.90
26336;DHT22;14047;50.936;4.654;2023-10-09T09:01:53;19.90;99.90
26336;DHT22;14047;50.936;4.654;2023-10-09T09:04:38;20.20;99.90
26336;DHT22;14047;50.936;4.654;2023-10-09T09:07:26;20.20;99.90
26336;DHT22;14047;50.936;4.654;2023-10-09T09:09:59;20.20;99.90
26336;DHT22;14047;50.936;4.654;2023-10-09T09:12:43;20.30;99.90
26336;DHT22;14047;50.936;4.654;2023-10-09T09:15:17;20.40;99.90
26336;DHT22;14047;50.936;4.654;2023-10-09T09:17:47;20.40;99.90
26336;DHT22;14047;50.936;4.654;2023-10-09T09:20:26;20.50;99.90
26336;DHT22;14047;50.936;4.654;2023-10-09T09:22:59;20.50;99.90
26336;DHT22;14047;50.936;4.654;2023-10-09T09:25:42;20.50;99.90
26336;DHT22;14047;50.936;4.654;2023-10-09T09:28:14;20.50;99.90
26336;DHT22;14047;50.936;4.654;2023-10-09T09:30:46;20.60;99.90
26336;DHT22;14047;50.936;4.654;2023-10-09T09:33:23;20.70;99.90
26336;DHT22;14047;50.936;4.654;2023-10-09T09:36:00;20.80;99.90
26336;DHT22;14047;50.936;4.654;2023-10-09T09:38:31;20.90;99.90
26336;DHT22;14047;50.936;4.654;2023-10-09T09:41:18;20.90;99.90
26336;DHT22;14047;50.936;4.654;2023-10-09T09:43:55;21.00;99.90
26336;DHT22;14047;50.936;4.654;2023-10-09T09:46:36;21.20;99.90
26336;DHT22;14047;50.936;4.654;2023-10-09T09:49:05;21.40;99.90
26336;DHT22;14047;50.936;4.654;2023-10-09T09:51:33;21.30;99.90
26336;DHT22;14047;50.936;4.654;2023-10-09T09:53:59;21.50;99.90
26336;DHT22;14047;50.936;4.654;2023-10-09T09:56:25;21.60;99.90
26336;DHT22;14047;50.936;4.654;2023-10-09T09:58:51;21.80;99.90
26336;DHT22;14047;50.936;4.654;2023-10-09T10:01:20;21.70;99.90
26336;DHT22;14047;50.936;4.654;2023-10-09T10:04:15;21.50;99.90
26336;DHT22;14047;50.936;4.654;2023-10-09T10:06:47;21.30;99.90
26336;DHT22;14047;50.936;4.654;2023-10-09T10:09:34;21.40;99.90
26336;DHT22;14047;50.936;4.654;2023-10-09T10:12:05;21.10;99.90
26336;DHT22;14047;50.936;4.654;2023-10-09T10:14:54;21.10;99.90
26336;DHT22;14047;50.936;4.654;2023-10-09T10:20:30;21.50;99.90
26336;DHT22;14047;50.936;4.654;2023-10-09T10:23:15;21.70;99.90
26336;DHT22;14047;50.936;4.654;2023-10-09T10:25:43;21.40;99.90
26336;DHT22;14047;50.936;4.654;2023-10-09T10:28:22;21.50;99.90
26336;DHT22;14047;50.936;4.654;2023-10-09T10:30:57;21.50;99.90
26336;DHT22;14047;50.936;4.654;2023-10-09T10:33:27;21.50;99.90
26336;DHT22;14047;50.936;4.654;2023-10-09T10:36:12;21.70;99.90
26336;DHT22;14047;50.936;4.654;2023-10-09T10:39:02;21.70;99.90
26336;DHT22;14047;50.936;4.654;2023-10-09T10:41:35;21.70;99.90
26336;DHT22;14047;50.936;4.654;2023-10-09T10:44:27;21.70;99.90
26336;DHT22;14047;50.936;4.654;2023-10-09T10:47:09;21.50;99.90
26336;DHT22;14047;50.936;4.654;2023-10-09T10:49:53;21.60;99.90
26336;DHT22;14047;50.936;4.654;2023-10-09T10:52:33;21.60;99.90
26336;DHT22;14047;50.936;4.654;2023-10-09T10:55:12;21.70;99.90
26336;DHT22;14047;50.936;4.654;2023-10-09T10:58:15;21.70;99.90
26336;DHT22;14047;50.936;4.654;2023-10-09T11:00:53;21.70;99.90
26336;DHT22;14047;50.936;4.654;2023-10-09T11:03:22;21.70;99.90
26336;DHT22;14047;50.936;4.654;2023-10-09T11:06:09;21.80;99.90
26336;DHT22;14047;50.936;4.654;2023-10-09T11:08:44;22.00;99.90
26336;DHT22;14047;50.936;4.654;2023-10-09T11:11:20;22.20;99.90
26336;DHT22;14047;50.936;4.654;2023-10-09T11:13:47;22.50;99.90
26336;DHT22;14047;50.936;4.654;2023-10-09T11:16:25;22.70;99.90
26336;DHT22;14047;50.936;4.654;2023-10-09T11:18:58;22.80;99.90
26336;DHT22;14047;50.936;4.654;2023-10-09T11:21:30;22.90;99.90
26336;DHT22;14047;50.936;4.654;2023-10-09T11:24:07;22.90;99.90
26336;DHT22;14047;50.936;4.654;2023-10-09T11:26:52;22.80;99.90
26336;DHT22;14047;50.936;4.654;2023-10-09T11:29:34;22.70;99.90
26336;DHT22;14047;50.936;4.654;2023-10-09T11:32:15;23.00;99.90
26336;DHT22;14047;50.936;4.654;2023-10-09T11:34:46;23.10;99.90
26336;DHT22;14047;50.936;4.654;2023-10-09T11:37:22;23.10;99.90
26336;DHT22;14047;50.936;4.654;2023-10-09T11:40:29;23.20;99.90
26336;DHT22;14047;50.936;4.654;2023-10-09T11:43:13;23.10;99.90
26336;DHT22;14047;50.936;4.654;2023-10-09T11:45:40;22.90;99.90
26336;DHT22;14047;50.936;4.654;2023-10-09T11:48:20;22.50;99.90
26336;DHT22;14047;50.936;4.654;2023-10-09T11:51:13;22.30;99.90
26336;DHT22;14047;50.936;4.654;2023-10-09T11:53:45;22.40;99.90
26336;DHT22;14047;50.936;4.654;2023-10-09T11:56:15;22.70;99.90
26336;DHT22;14047;50.936;4.654;2023-10-09T11:58:49;22.80;99.90
26336;DHT22;14047;50.936;4.654;2023-10-09T12:01:18;22.90;99.90
26336;DHT22;14047;50.936;4.654;2023-10-09T12:03:51;23.00;99.90
26336;DHT22;14047;50.936;4.654;2023-10-09T12:06:20;23.10;99.90
26336;DHT22;14047;50.936;4.654;2023-10-09T12:08:48;23.30;99.90
26336;DHT22;14047;50.936;4.654;2023-10-09T12:11:17;23.50;99.90
26336;DHT22;14047;50.936;4.654;2023-10-09T12:13:54;23.40;99.90
26336;DHT22;14047;50.936;4.654;2023-10-09T12:16:23;23.30;99.90
26336;DHT22;14047;50.936;4.654;2023-10-09T12:18:54;23.40;99.90
26336;DHT22;14047;50.936;4.654;2023-10-09T12:21:20;23.60;99.90
26336;DHT22;14047;50.936;4.654;2023-10-09T12:23:46;23.70;99.90
26336;DHT22;14047;50.936;4.654;2023-10-09T12:26:13;23.80;99.90
26336;DHT22;14047;50.936;4.654;2023-10-09T12:28:43;23.70;99.90
26336;DHT22;14047;50.936;4.654;2023-10-09T12:31:15;23.60;99.90
26336;DHT22;14047;50.936;4.654;2023-10-09T12:33:42;23.40;99.90
26336;DHT22;14047;50.936;4.654;2023-10-09T12:36:14;23.50;99.90
26336;DHT22;14047;50.936;4.654;2023-10-09T12:38:49;23.60;99.90
26336;DHT22;14047;50.936;4.654;2023-10-09T12:41:21;23.90;99.90
26336;DHT22;14047;50.936;4.654;2023-10-09T12:43:57;23.90;99.90
26336;DHT22;14047;50.936;4.654;2023-10-09T12:46:26;24.00;99.90
26336;DHT22;14047;50.936;4.654;2023-10-09T12:48:52;24.10;99.90
26336;DHT22;14047;50.936;4.654;2023-10-09T12:51:20;24.20;99.90
26336;DHT22;14047;50.936;4.654;2023-10-09T12:53:51;24.30;99.90
26336;DHT22;14047;50.936;4.654;2023-10-09T12:56:24;24.30;99.90
26336;DHT22;14047;50.936;4.654;2023-10-09T12:59:08;24.40;99.90
26336;DHT22;14047;50.936;4.654;2023-10-09T13:01:41;24.40;99.90
26336;DHT22;14047;50.936;4.654;2023-10-09T13:04:13;24.50;99.90
26336;DHT22;14047;50.936;4.654;2023-10-09T13:06:43;24.40;99.90
26336;DHT22;14047;50.936;4.654;2023-10-09T13:09:17;23.90;99.90
26336;DHT22;14047;50.936;4.654;2023-10-09T13:12:09;23.70;99.90
26336;DHT22;14047;50.936;4.654;2023-10-09T13:14:38;23.90;99.90
26336;DHT22;14047;50.936;4.654;2023-10-09T13:17:03;23.90;99.90
26336;DHT22;14047;50.936;4.654;2023-10-09T13:19:35;23.80;99.90
26336;DHT22;14047;50.936;4.654;2023-10-09T13:22:01;23.70;99.90
26336;DHT22;14047;50.936;4.654;2023-10-09T13:24:29;23.80;99.90
26336;DHT22;14047;50.936;4.654;2023-10-09T13:26:57;24.00;99.90
26336;DHT22;14047;50.936;4.654;2023-10-09T13:29:26;24.20;99.90
26336;DHT22;14047;50.936;4.654;2023-10-09T13:31:54;24.20;99.90
26336;DHT22;14047;50.936;4.654;2023-10-09T13:34:24;24.20;99.90
26336;DHT22;14047;50.936;4.654;2023-10-09T13:36:54;24.00;99.90
26336;DHT22;14047;50.936;4.654;2023-10-09T13:39:24;23.90;99.90
26336;DHT22;14047;50.936;4.654;2023-10-09T13:41:57;23.90;99.90
26336;DHT22;14047;50.936;4.654;2023-10-09T13:44:28;24.10;99.90
26336;DHT22;14047;50.936;4.654;2023-10-09T13:46:55;24.20;99.90
26336;DHT22;14047;50.936;4.654;2023-10-09T13:49:22;24.20;99.90
26336;DHT22;14047;50.936;4.654;2023-10-09T13:51:49;24.10;99.90
26336;DHT22;14047;50.936;4.654;2023-10-09T13:54:16;24.00;99.90
26336;DHT22;14047;50.936;4.654;2023-10-09T13:57:06;24.00;99.90
26336;DHT22;14047;50.936;4.654;2023-10-09T13:59:34;24.00;99.90
26336;DHT22;14047;50.936;4.654;2023-10-09T14:02:01;23.90;99.90
26336;DHT22;14047;50.936;4.654;2023-10-09T14:04:34;23.80;99.90
26336;DHT22;14047;50.936;4.654;2023-10-09T14:07:00;23.50;99.90
26336;DHT22;14047;50.936;4.654;2023-10-09T14:09:28;23.50;99.90
26336;DHT22;14047;50.936;4.654;2023-10-09T14:12:01;23.50;99.90
26336;DHT22;14047;50.936;4.654;2023-10-09T14:14:37;23.60;99.90
26336;DHT22;14047;50.936;4.654;2023-10-09T14:17:07;23.50;99.90
26336;DHT22;14047;50.936;4.654;2023-10-09T14:19:40;23.50;99.90
26336;DHT22;14047;50.936;4.654;2023-10-09T14:22:17;23.50;99.90
26336;DHT22;14047;50.936;4.654;2023-10-09T14:24:48;23.30;99.90
26336;DHT22;14047;50.936;4.654;2023-10-09T14:27:14;23.40;99.90
26336;DHT22;14047;50.936;4.654;2023-10-09T14:29:47;23.40;99.90
26336;DHT22;14047;50.936;4.654;2023-10-09T14:32:14;23.50;99.90
26336;DHT22;14047;50.936;4.654;2023-10-09T14:34:41;23.40;99.90
26336;DHT22;14047;50.936;4.654;2023-10-09T14:37:17;23.60;99.90
26336;DHT22;14047;50.936;4.654;2023-10-09T14:39:45;23.70;99.90
26336;DHT22;14047;50.936;4.654;2023-10-09T14:42:15;23.90;99.90
26336;DHT22;14047;50.936;4.654;2023-10-09T14:44:43;24.00;99.90
26336;DHT22;14047;50.936;4.654;2023-10-09T14:47:11;24.00;99.90
26336;DHT22;14047;50.936;4.654;2023-10-09T14:49:40;24.20;99.90
26336;DHT22;14047;50.936;4.654;2023-10-09T14:52:13;24.20;99.90
26336;DHT22;14047;50.936;4.654;2023-10-09T14:54:42;24.30;99.90
26336;DHT22;14047;50.936;4.654;2023-10-09T14:57:11;24.20;99.90
26336;DHT22;14047;50.936;4.654;2023-10-09T14:59:37;24.20;99.90
26336;DHT22;14047;50.936;4.654;2023-10-09T15:02:04;24.30;99.90
26336;DHT22;14047;50.936;4.654;2023-10-09T15:04:33;24.30;99.90
26336;DHT22;14047;50.936;4.654;2023-10-09T15:07:03;24.30;99.90
26336;DHT22;14047;50.936;4.654;2023-10-09T15:09:36;24.20;99.90
26336;DHT22;14047;50.936;4.654;2023-10-09T15:12:05;24.10;99.90
26336;DHT22;14047;50.936;4.654;2023-10-09T15:14:32;24.00;99.90
26336;DHT22;14047;50.936;4.654;2023-10-09T15:16:59;24.00;99.90
26336;DHT22;14047;50.936;4.654;2023-10-09T15:19:25;23.80;99.90
26336;DHT22;14047;50.936;4.654;2023-10-09T15:21:56;23.90;99.90
26336;DHT22;14047;50.936;4.654;2023-10-09T15:24:24;24.00;99.90
26336;DHT22;14047;50.936;4.654;2023-10-09T15:26:51;24.10;99.90
26336;DHT22;14047;50.936;4.654;2023-10-09T15:29:27;24.10;99.90
26336;DHT22;14047;50.936;4.654;2023-10-09T15:31:59;24.00;99.90
26336;DHT22;14047;50.936;4.654;2023-10-09T15:34:40;24.00;99.90
26336;DHT22;14047;50.936;4.654;2023-10-09T15:37:07;24.00;99.90
26336;DHT22;14047;50.936;4.654;2023-10-09T15:39:36;24.00;99.90
26336;DHT22;14047;50.936;4.654;2023-10-09T15:42:02;24.10;99.90
26336;DHT22;14047;50.936;4.654;2023-10-09T15:44:32;24.10;99.90
26336;DHT22;14047;50.936;4.654;2023-10-09T15:47:03;24.10;99.90
26336;DHT22;14047;50.936;4.654;2023-10-09T15:49:29;24.10;99.90
26336;DHT22;14047;50.936;4.654;2023-10-09T15:51:59;24.20;99.90
26336;DHT22;14047;50.936;4.654;2023-10-09T15:54:27;24.40;99.90
26336;DHT22;14047;50.936;4.654;2023-10-09T15:56:55;24.60;99.90
26336;DHT22;14047;50.936;4.654;2023-10-09T15:59:23;24.90;99.90
26336;DHT22;14047;50.936;4.654;2023-10-09T16:01:50;25.30;99.90
26336;DHT22;14047;50.936;4.654;2023-10-09T16:04:17;25.70;99.90
26336;DHT22;14047;50.936;4.654;2023-10-09T16:06:43;26.10;99.90
26336;DHT22;14047;50.936;4.654;2023-10-09T16:09:09;26.30;99.90
26336;DHT22;14047;50.936;4.654;2023-10-09T16:11:41;26.30;99.90
26336;DHT22;14047;50.936;4.654;2023-10-09T16:14:07;26.40;99.90
26336;DHT22;14047;50.936;4.654;2023-10-09T16:16:37;26.40;99.90
26336;DHT22;14047;50.936;4.654;2023-10-09T16:19:08;26.40;99.90
26336;DHT22;14047;50.936;4.654;2023-10-09T16:21:38;26.40;99.90
26336;DHT22;14047;50.936;4.654;2023-10-09T16:24:05;26.30;99.90
26336;DHT22;14047;50.936;4.654;2023-10-09T16:26:32;26.00;99.90
26336;DHT22;14047;50.936;4.654;2023-10-09T16:29:09;25.70;99.90